sensor_id;sensor_type;location;lat;lon;timestamp;pressure;altitude;pressure_sealevel;temperature;humidity
47280;BME280;34064;44.942;0.008;2023-04-06T00:02:23;99270.31;;;12.53;42.19
47280;BME280;34064;44.942;0.008;2023-04-06T00:04:49;99263.50;;;12.49;42.44
47280;BME280;34064;44.942;0.008;2023-04-06T00:07:16;99262.91;;;12.45;42.23
47280;BME280;34064;44.942;0.008;2023-04-06T00:09:42;99263.13;;;12.42;42.76
47280;BME280;34064;44.942;0.008;2023-04-06T00:12:08;99262.16;;;12.43;42.13
47280;BME280;34064;44.942;0.008;2023-04-06T00:14:35;99261.47;;;12.41;41.97
47280;BME280;34064;44.942;0.008;2023-04-06T00:17:01;99259.84;;;12.39;41.75
47280;BME280;34064;44.942;0.008;2023-04-06T00:19:28;99256.47;;;12.37;41.50
47280;BME280;34064;44.942;0.008;2023-04-06T00:21:54;99254.66;;;12.37;41.25
47280;BME280;34064;44.942;0.008;2023-04-06T00:24:20;99259.03;;;12.38;41.45
47280;BME280;34064;44.942;0.008;2023-04-06T00:26:47;99254.88;;;12.34;41.56
47280;BME280;34064;44.942;0.008;2023-04-06T00:29:13;99259.38;;;12.33;41.84
47280;BME280;34064;44.942;0.008;2023-04-06T00:31:40;99265.78;;;12.31;41.65
47280;BME280;34064;44.942;0.008;2023-04-06T00:34:06;99259.59;;;12.30;41.55
47280;BME280;34064;44.942;0.008;2023-04-06T00:36:33;99261.28;;;12.31;41.40
47280;BME280;34064;44.942;0.008;2023-04-06T00:38:59;99259.50;;;12.32;41.32
47280;BME280;34064;44.942;0.008;2023-04-06T00:41:26;99252.34;;;12.32;41.40
47280;BME280;34064;44.942;0.008;2023-04-06T00:43:53;99254.16;;;12.32;41.54
47280;BME280;34064;44.942;0.008;2023-04-06T00:46:19;99250.78;;;12.30;42.09
47280;BME280;34064;44.942;0.008;2023-04-06T00:48:46;99246.41;;;12.29;42.04
47280;BME280;34064;44.942;0.008;2023-04-06T00:51:12;99244.72;;;12.28;42.21
47280;BME280;34064;44.942;0.008;2023-04-06T00:53:39;99249.06;;;12.29;42.23
47280;BME280;34064;44.942;0.008;2023-04-06T00:56:05;99242.78;;;12.30;42.31
47280;BME280;34064;44.942;0.008;2023-04-06T00:58:32;99239.16;;;12.31;42.45
47280;BME280;34064;44.942;0.008;2023-04-06T01:00:58;99249.69;;;12.32;41.91
47280;BME280;34064;44.942;0.008;2023-04-06T01:03:25;99245.19;;;12.33;41.49
47280;BME280;34064;44.942;0.008;2023-04-06T01:05:52;99246.78;;;12.36;41.92
47280;BME280;34064;44.942;0.008;2023-04-06T01:08:24;99234.19;;;12.38;41.42
47280;BME280;34064;44.942;0.008;2023-04-06T01:10:50;99234.81;;;12.41;41.14
47280;BME280;34064;44.942;0.008;2023-04-06T01:13:17;99231.88;;;12.44;41.50
47280;BME280;34064;44.942;0.008;2023-04-06T01:15:43;99225.81;;;12.42;41.83
47280;BME280;34064;44.942;0.008;2023-04-06T01:18:10;99225.81;;;12.42;41.56
47280;BME280;34064;44.942;0.008;2023-04-06T01:20:36;99217.72;;;12.44;41.59
47280;BME280;34064;44.942;0.008;2023-04-06T01:23:03;99218.56;;;12.44;41.37
47280;BME280;34064;44.942;0.008;2023-04-06T01:25:29;99217.00;;;12.42;41.82
47280;BME280;34064;44.942;0.008;2023-04-06T01:27:56;99225.94;;;12.41;41.69
47280;BME280;34064;44.942;0.008;2023-04-06T01:30:22;99226.09;;;12.39;41.89
47280;BME280;34064;44.942;0.008;2023-04-06T01:32:48;99220.75;;;12.39;41.92
47280;BME280;34064;44.942;0.008;2023-04-06T01:35:15;99213.84;;;12.37;41.74
47280;BME280;34064;44.942;0.008;2023-04-06T01:37:42;99218.44;;;12.35;41.79
47280;BME280;34064;44.942;0.008;2023-04-06T01:40:09;99217.59;;;12.34;41.95
47280;BME280;34064;44.942;0.008;2023-04-06T01:42:35;99220.38;;;12.32;42.17
47280;BME280;34064;44.942;0.008;2023-04-06T01:45:02;99216.88;;;12.32;42.03
47280;BME280;34064;44.942;0.008;2023-04-06T01:47:28;99216.13;;;12.30;42.13
47280;BME280;34064;44.942;0.008;2023-04-06T01:49:54;99216.13;;;12.30;41.89
47280;BME280;34064;44.942;0.008;2023-04-06T01:52:21;99208.25;;;12.28;41.98
47280;BME280;34064;44.942;0.008;2023-04-06T01:54:47;99212.75;;;12.28;41.69
47280;BME280;34064;44.942;0.008;2023-04-06T01:57:13;99210.91;;;12.28;41.75
47280;BME280;34064;44.942;0.008;2023-04-06T01:59:40;99201.25;;;12.27;42.15
47280;BME280;34064;44.942;0.008;2023-04-06T02:02:06;99196.03;;;12.26;41.96
47280;BME280;34064;44.942;0.008;2023-04-06T02:04:33;99201.34;;;12.26;41.93
47280;BME280;34064;44.942;0.008;2023-04-06T02:06:59;99190.59;;;12.27;41.85
47280;BME280;34064;44.942;0.008;2023-04-06T02:09:25;99191.44;;;12.28;41.90
47280;BME280;34064;44.942;0.008;2023-04-06T02:11:52;99195.94;;;12.27;42.15
47280;BME280;34064;44.942;0.008;2023-04-06T02:14:18;99196.88;;;12.26;41.72
47280;BME280;34064;44.942;0.008;2023-04-06T02:16:44;99195.53;;;12.21;42.14
47280;BME280;34064;44.942;0.008;2023-04-06T02:19:11;99190.44;;;12.17;42.46
47280;BME280;34064;44.942;0.008;2023-04-06T02:21:37;99185.34;;;12.14;42.36
47280;BME280;34064;44.942;0.008;2023-04-06T02:24:04;99189.72;;;12.15;42.28
47280;BME280;34064;44.942;0.008;2023-04-06T02:26:30;99182.44;;;12.17;42.29
47280;BME280;34064;44.942;0.008;2023-04-06T02:28:57;99183.41;;;12.16;42.50
47280;BME280;34064;44.942;0.008;2023-04-06T02:31:23;99178.09;;;12.16;42.41
47280;BME280;34064;44.942;0.008;2023-04-06T02:33:49;99178.97;;;12.17;42.25
47280;BME280;34064;44.942;0.008;2023-04-06T02:36:16;99186.06;;;12.16;42.42
47280;BME280;34064;44.942;0.008;2023-04-06T02:38:42;99185.13;;;12.17;42.17
47280;BME280;34064;44.942;0.008;2023-04-06T02:41:09;99189.59;;;12.17;42.01
47280;BME280;34064;44.942;0.008;2023-04-06T02:43:36;99192.59;;;12.01;43.66
47280;BME280;34064;44.942;0.008;2023-04-06T02:46:02;99196.75;;;11.92;43.77
47280;BME280;34064;44.942;0.008;2023-04-06T02:48:28;99196.06;;;11.90;42.91
47280;BME280;34064;44.942;0.008;2023-04-06T02:50:55;99200.50;;;11.90;43.18
47280;BME280;34064;44.942;0.008;2023-04-06T02:53:21;99198.19;;;11.85;43.71
47280;BME280;34064;44.942;0.008;2023-04-06T02:55:48;99196.28;;;11.87;43.77
47280;BME280;34064;44.942;0.008;2023-04-06T02:58:14;99191.78;;;11.88;43.75
47280;BME280;34064;44.942;0.008;2023-04-06T03:00:40;99178.47;;;11.88;43.78
47280;BME280;34064;44.942;0.008;2023-04-06T03:03:07;99172.19;;;11.89;43.68
47280;BME280;34064;44.942;0.008;2023-04-06T03:05:34;99172.94;;;11.91;43.49
47280;BME280;34064;44.942;0.008;2023-04-06T03:08:00;99165.69;;;11.93;43.38
47280;BME280;34064;44.942;0.008;2023-04-06T03:10:27;99155.88;;;11.93;44.10
47280;BME280;34064;44.942;0.008;2023-04-06T03:12:53;99151.41;;;11.94;44.15
47280;BME280;34064;44.942;0.008;2023-04-06T03:15:19;99146.09;;;11.94;44.42
47280;BME280;34064;44.942;0.008;2023-04-06T03:17:46;99141.72;;;11.93;44.90
47280;BME280;34064;44.942;0.008;2023-04-06T03:20:12;99146.09;;;11.94;44.52
47280;BME280;34064;44.942;0.008;2023-04-06T03:22:38;99139.78;;;11.95;44.54
47280;BME280;34064;44.942;0.008;2023-04-06T03:25:05;99146.31;;;11.91;44.28
47280;BME280;34064;44.942;0.008;2023-04-06T03:27:32;99159.59;;;11.79;44.66
47280;BME280;34064;44.942;0.008;2023-04-06T03:29:58;99162.94;;;11.70;44.82
47280;BME280;34064;44.942;0.008;2023-04-06T03:32:25;99168.75;;;11.64;44.94
47280;BME280;34064;44.942;0.008;2023-04-06T03:34:52;99170.53;;;11.63;44.83
47280;BME280;34064;44.942;0.008;2023-04-06T03:37:18;99168.22;;;11.59;45.41
47280;BME280;34064;44.942;0.008;2023-04-06T03:39:44;99171.84;;;11.58;45.24
47280;BME280;34064;44.942;0.008;2023-04-06T03:42:11;99159.28;;;11.60;44.74
47280;BME280;34064;44.942;0.008;2023-04-06T03:44:37;99150.34;;;11.61;44.70
47280;BME280;34064;44.942;0.008;2023-04-06T03:47:04;99145.75;;;11.63;44.66
47280;BME280;34064;44.942;0.008;2023-04-06T03:49:30;99149.16;;;11.65;44.65
47280;BME280;34064;44.942;0.008;2023-04-06T03:51:57;99144.53;;;11.67;44.21
47280;BME280;34064;44.942;0.008;2023-04-06T03:54:23;99144.53;;;11.67;44.95
47280;BME280;34064;44.942;0.008;2023-04-06T03:56:50;99141.78;;;11.68;44.78
47280;BME280;34064;44.942;0.008;2023-04-06T03:59:16;99151.34;;;11.71;44.60
47280;BME280;34064;44.942;0.008;2023-04-06T04:01:42;99140.81;;;11.69;45.10
47280;BME280;34064;44.942;0.008;2023-04-06T04:04:09;99148.19;;;11.66;45.90
47280;BME280;34064;44.942;0.008;2023-04-06T04:06:36;99148.63;;;11.60;45.80
47280;BME280;34064;44.942;0.008;2023-04-06T04:09:02;99145.47;;;11.54;45.33
47280;BME280;34064;44.942;0.008;2023-04-06T04:11:29;99147.41;;;11.52;45.46
47280;BME280;34064;44.942;0.008;2023-04-06T04:13:55;99145.59;;;11.53;45.70
47280;BME280;34064;44.942;0.008;2023-04-06T04:16:22;99151.75;;;11.53;45.29
47280;BME280;34064;44.942;0.008;2023-04-06T04:18:48;99148.03;;;11.56;45.43
47280;BME280;34064;44.942;0.008;2023-04-06T04:21:14;99150.56;;;11.58;45.57
47280;BME280;34064;44.942;0.008;2023-04-06T04:23:41;99155.25;;;11.54;45.80
47280;BME280;34064;44.942;0.008;2023-04-06T04:26:07;99163.09;;;11.44;46.50
47280;BME280;34064;44.942;0.008;2023-04-06T04:28:34;99175.25;;;11.35;46.34
47280;BME280;34064;44.942;0.008;2023-04-06T04:31:00;99178.25;;;11.31;46.67
47280;BME280;34064;44.942;0.008;2023-04-06T04:33:26;99183.06;;;11.26;47.02
47280;BME280;34064;44.942;0.008;2023-04-06T04:35:53;99193.72;;;11.26;46.47
47280;BME280;34064;44.942;0.008;2023-04-06T04:38:19;99201.06;;;11.22;46.50
47280;BME280;34064;44.942;0.008;2023-04-06T04:40:46;99223.09;;;11.11;46.65
47280;BME280;34064;44.942;0.008;2023-04-06T04:43:12;99227.38;;;11.01;46.75
47280;BME280;34064;44.942;0.008;2023-04-06T04:45:38;99218.44;;;11.02;46.71
47280;BME280;34064;44.942;0.008;2023-04-06T04:48:05;99217.16;;;11.07;46.89
47280;BME280;34064;44.942;0.008;2023-04-06T04:50:32;99212.72;;;11.08;47.08
47280;BME280;34064;44.942;0.008;2023-04-06T04:52:58;99242.47;;;11.13;47.03
47280;BME280;34064;44.942;0.008;2023-04-06T04:55:25;99273.31;;;11.03;48.02
47280;BME280;34064;44.942;0.008;2023-04-06T04:57:52;99267.19;;;10.89;48.65
47280;BME280;34064;44.942;0.008;2023-04-06T05:00:18;99272.09;;;10.83;48.10
47280;BME280;34064;44.942;0.008;2023-04-06T05:02:45;99285.06;;;10.87;48.33
47280;BME280;34064;44.942;0.008;2023-04-06T05:05:12;99274.53;;;10.86;48.77
47280;BME280;34064;44.942;0.008;2023-04-06T05:07:38;99268.03;;;10.90;48.32
47280;BME280;34064;44.942;0.008;2023-04-06T05:10:05;99269.41;;;10.96;48.63
47280;BME280;34064;44.942;0.008;2023-04-06T05:12:31;99268.00;;;11.03;47.88
47280;BME280;34064;44.942;0.008;2023-04-06T05:14:58;99266.72;;;11.08;48.28
47280;BME280;34064;44.942;0.008;2023-04-06T05:17:24;99262.66;;;11.16;47.80
47280;BME280;34064;44.942;0.008;2023-04-06T05:19:51;99261.50;;;11.20;47.55
47280;BME280;34064;44.942;0.008;2023-04-06T05:22:17;99267.22;;;11.27;47.44
47280;BME280;34064;44.942;0.008;2023-04-06T05:24:44;99257.94;;;11.32;47.14
47280;BME280;34064;44.942;0.008;2023-04-06T05:27:11;99270.06;;;11.36;47.30
47280;BME280;34064;44.942;0.008;2023-04-06T05:29:37;99269.22;;;11.36;47.30
47280;BME280;34064;44.942;0.008;2023-04-06T05:32:04;99263.66;;;11.39;47.02
47280;BME280;34064;44.942;0.008;2023-04-06T05:34:30;99258.34;;;11.39;47.50
47280;BME280;34064;44.942;0.008;2023-04-06T05:36:57;99259.81;;;11.43;47.06
47280;BME280;34064;44.942;0.008;2023-04-06T05:39:23;99256.19;;;11.44;47.40
47280;BME280;34064;44.942;0.008;2023-04-06T05:41:50;99249.69;;;11.48;46.89
47280;BME280;34064;44.942;0.008;2023-04-06T05:44:16;99248.72;;;11.49;47.42
47280;BME280;34064;44.942;0.008;2023-04-06T05:46:44;99257.66;;;11.48;47.76
47280;BME280;34064;44.942;0.008;2023-04-06T05:49:10;99262.75;;;11.51;47.70
47280;BME280;34064;44.942;0.008;2023-04-06T05:51:37;99268.09;;;11.51;47.84
47280;BME280;34064;44.942;0.008;2023-04-06T05:54:03;99265.22;;;11.54;47.48
47280;BME280;34064;44.942;0.008;2023-04-06T05:56:29;99266.16;;;11.53;47.49
47280;BME280;34064;44.942;0.008;2023-04-06T05:58:57;99262.56;;;11.54;47.38
47280;BME280;34064;44.942;0.008;2023-04-06T06:01:24;99266.91;;;11.55;47.42
47280;BME280;34064;44.942;0.008;2023-04-06T06:03:50;99265.84;;;11.58;47.36
47280;BME280;34064;44.942;0.008;2023-04-06T06:06:16;99257.63;;;11.61;47.25
47280;BME280;34064;44.942;0.008;2023-04-06T06:08:43;99267.19;;;11.64;47.00
47280;BME280;34064;44.942;0.008;2023-04-06T06:11:09;99265.91;;;11.69;47.11
47280;BME280;34064;44.942;0.008;2023-04-06T06:13:36;99265.66;;;11.73;46.99
47280;BME280;34064;44.942;0.008;2023-04-06T06:16:02;99257.56;;;11.74;47.45
47280;BME280;34064;44.942;0.008;2023-04-06T06:18:31;99271.59;;;11.76;47.28
47280;BME280;34064;44.942;0.008;2023-04-06T06:20:58;99260.72;;;11.79;46.95
47280;BME280;34064;44.942;0.008;2023-04-06T06:23:24;99256.03;;;11.83;46.82
47280;BME280;34064;44.942;0.008;2023-04-06T06:25:51;99263.66;;;11.88;46.72
47280;BME280;34064;44.942;0.008;2023-04-06T06:28:17;99261.53;;;11.93;46.80
47280;BME280;34064;44.942;0.008;2023-04-06T06:30:44;99255.75;;;11.99;46.69
47280;BME280;34064;44.942;0.008;2023-04-06T06:33:10;99248.03;;;12.07;46.64
47280;BME280;34064;44.942;0.008;2023-04-06T06:35:36;99252.66;;;12.16;46.62
47280;BME280;34064;44.942;0.008;2023-04-06T06:38:03;99246.63;;;12.26;46.55
47280;BME280;34064;44.942;0.008;2023-04-06T06:40:29;99243.25;;;12.35;46.35
47280;BME280;34064;44.942;0.008;2023-04-06T06:42:56;99234.81;;;12.41;46.37
47280;BME280;34064;44.942;0.008;2023-04-06T06:45:22;99245.22;;;12.44;46.34
47280;BME280;34064;44.942;0.008;2023-04-06T06:47:48;99241.81;;;12.42;46.35
47280;BME280;34064;44.942;0.008;2023-04-06T06:50:15;99261.19;;;12.44;46.28
47280;BME280;34064;44.942;0.008;2023-04-06T06:52:41;99270.41;;;12.40;46.56
47280;BME280;34064;44.942;0.008;2023-04-06T06:55:09;99273.31;;;12.37;46.83
47280;BME280;34064;44.942;0.008;2023-04-06T06:57:36;99274.03;;;12.39;47.07
47280;BME280;34064;44.942;0.008;2023-04-06T07:00:03;99267.75;;;12.40;46.71
47280;BME280;34064;44.942;0.008;2023-04-06T07:02:31;99266.53;;;12.44;46.95
47280;BME280;34064;44.942;0.008;2023-04-06T07:04:57;99257.94;;;12.52;46.53
47280;BME280;34064;44.942;0.008;2023-04-06T07:07:24;99262.78;;;12.58;46.81
47280;BME280;34064;44.942;0.008;2023-04-06T07:09:50;99256.03;;;12.66;46.79
47280;BME280;34064;44.942;0.008;2023-04-06T07:12:16;99255.19;;;12.76;46.59
47280;BME280;34064;44.942;0.008;2023-04-06T07:14:43;99252.75;;;12.85;46.43
47280;BME280;34064;44.942;0.008;2023-04-06T07:17:09;99250.56;;;12.90;46.40
47280;BME280;34064;44.942;0.008;2023-04-06T07:19:36;99253.97;;;12.92;46.13
47280;BME280;34064;44.942;0.008;2023-04-06T07:22:02;99252.88;;;12.94;46.13
47280;BME280;34064;44.942;0.008;2023-04-06T07:24:29;99257.13;;;12.97;45.93
47280;BME280;34064;44.942;0.008;2023-04-06T07:26:57;99257.97;;;12.98;45.92
47280;BME280;34064;44.942;0.008;2023-04-06T07:29:23;99256.63;;;13.03;46.17
47280;BME280;34064;44.942;0.008;2023-04-06T07:31:49;99260.03;;;13.17;45.73
47280;BME280;34064;44.942;0.008;2023-04-06T07:34:16;99249.59;;;13.25;45.63
47280;BME280;34064;44.942;0.008;2023-04-06T07:36:42;99242.19;;;13.40;45.60
47280;BME280;34064;44.942;0.008;2023-04-06T07:39:08;99233.38;;;13.61;45.18
47280;BME280;34064;44.942;0.008;2023-04-06T07:41:35;99219.81;;;13.85;44.93
47280;BME280;34064;44.942;0.008;2023-04-06T07:44:01;99214.56;;;13.95;44.96
47280;BME280;34064;44.942;0.008;2023-04-06T07:46:28;99205.91;;;14.02;44.76
47280;BME280;34064;44.942;0.008;2023-04-06T07:48:55;99208.50;;;14.14;44.56
47280;BME280;34064;44.942;0.008;2023-04-06T07:51:22;99195.31;;;14.22;44.54
47280;BME280;34064;44.942;0.008;2023-04-06T07:53:49;99201.88;;;14.29;44.30
47280;BME280;34064;44.942;0.008;2023-04-06T07:56:16;99195.72;;;14.39;44.22
47280;BME280;34064;44.942;0.008;2023-04-06T07:58:42;99194.22;;;14.46;43.83
47280;BME280;34064;44.942;0.008;2023-04-06T08:01:09;99194.38;;;14.54;43.63
47280;BME280;34064;44.942;0.008;2023-04-06T08:03:36;99182.88;;;14.63;42.88
47280;BME280;34064;44.942;0.008;2023-04-06T08:06:02;99183.38;;;14.69;42.81
47280;BME280;34064;44.942;0.008;2023-04-06T08:08:29;99185.34;;;14.76;42.64
47280;BME280;34064;44.942;0.008;2023-04-06T08:10:56;99178.22;;;14.87;42.67
47280;BME280;34064;44.942;0.008;2023-04-06T08:13:23;99178.53;;;14.93;42.29
47280;BME280;34064;44.942;0.008;2023-04-06T08:15:49;99180.78;;;14.98;41.89
47280;BME280;34064;44.942;0.008;2023-04-06T08:18:16;99182.91;;;15.04;41.22
47280;BME280;34064;44.942;0.008;2023-04-06T08:20:42;99188.72;;;15.09;41.33
47280;BME280;34064;44.942;0.008;2023-04-06T08:23:08;99181.50;;;15.10;41.24
47280;BME280;34064;44.942;0.008;2023-04-06T08:25:36;99186.72;;;15.11;40.92
47280;BME280;34064;44.942;0.008;2023-04-06T08:28:03;99178.28;;;15.16;40.96
47280;BME280;34064;44.942;0.008;2023-04-06T08:30:30;99181.81;;;15.17;40.63
47280;BME280;34064;44.942;0.008;2023-04-06T08:32:56;99184.78;;;15.23;40.37
47280;BME280;34064;44.942;0.008;2023-04-06T08:35:23;99173.41;;;15.41;40.72
47280;BME280;34064;44.942;0.008;2023-04-06T08:37:49;99180.03;;;15.56;41.04
47280;BME280;34064;44.942;0.008;2023-04-06T08:40:16;99163.41;;;15.72;41.08
47280;BME280;34064;44.942;0.008;2023-04-06T08:42:57;99159.72;;;15.83;41.15
47280;BME280;34064;44.942;0.008;2023-04-06T08:45:25;99151.56;;;15.95;41.07
47280;BME280;34064;44.942;0.008;2023-04-06T08:47:52;99144.06;;;16.08;40.98
47280;BME280;34064;44.942;0.008;2023-04-06T08:50:20;99132.47;;;16.17;40.82
47280;BME280;34064;44.942;0.008;2023-04-06T08:52:48;99133.69;;;16.33;40.26
47280;BME280;34064;44.942;0.008;2023-04-06T08:55:15;99125.03;;;16.39;39.71
47280;BME280;34064;44.942;0.008;2023-04-06T08:57:43;99120.19;;;16.52;39.75
47280;BME280;34064;44.942;0.008;2023-04-06T09:00:11;99122.00;;;16.62;38.93
47280;BME280;34064;44.942;0.008;2023-04-06T09:02:43;99121.69;;;16.65;38.38
47280;BME280;34064;44.942;0.008;2023-04-06T09:05:11;99122.50;;;16.75;38.44
47280;BME280;34064;44.942;0.008;2023-04-06T09:07:38;99120.03;;;16.82;38.55
47280;BME280;34064;44.942;0.008;2023-04-06T09:10:05;99119.59;;;16.87;38.19
47280;BME280;34064;44.942;0.008;2023-04-06T09:12:33;99113.91;;;16.99;37.93
47280;BME280;34064;44.942;0.008;2023-04-06T09:15:00;99115.22;;;17.13;33.65
47280;BME280;34064;44.942;0.008;2023-04-06T09:17:32;99103.88;;;17.20;33.76
47280;BME280;34064;44.942;0.008;2023-04-06T09:20:03;99101.56;;;17.25;34.13
47280;BME280;34064;44.942;0.008;2023-04-06T09:22:40;99091.28;;;17.38;33.03
47280;BME280;34064;44.942;0.008;2023-04-06T09:25:07;99097.44;;;17.49;32.79
47280;BME280;34064;44.942;0.008;2023-04-06T09:27:36;99099.00;;;17.59;32.53
47280;BME280;34064;44.942;0.008;2023-04-06T09:30:10;99094.31;;;17.80;32.52
47280;BME280;34064;44.942;0.008;2023-04-06T09:32:49;99100.03;;;17.85;31.33
47280;BME280;34064;44.942;0.008;2023-04-06T09:35:17;99098.88;;;18.05;31.40
47280;BME280;34064;44.942;0.008;2023-04-06T09:37:44;99090.25;;;18.28;31.16
47280;BME280;34064;44.942;0.008;2023-04-06T09:40:12;99087.78;;;18.43;31.29
47280;BME280;34064;44.942;0.008;2023-04-06T09:42:41;99083.50;;;18.59;31.38
47280;BME280;34064;44.942;0.008;2023-04-06T09:45:08;99067.91;;;18.79;31.45
47280;BME280;34064;44.942;0.008;2023-04-06T09:47:37;99072.88;;;19.00;31.32
47280;BME280;34064;44.942;0.008;2023-04-06T09:50:04;99068.00;;;19.04;31.32
47280;BME280;34064;44.942;0.008;2023-04-06T09:52:41;99068.03;;;19.12;30.84
47280;BME280;34064;44.942;0.008;2023-04-06T09:55:09;99071.38;;;19.14;30.94
47280;BME280;34064;44.942;0.008;2023-04-06T09:58:03;99069.03;;;19.19;31.18
47280;BME280;34064;44.942;0.008;2023-04-06T10:00:32;99070.06;;;19.26;30.99
47280;BME280;34064;44.942;0.008;2023-04-06T10:05:56;99071.41;;;19.47;31.02
47280;BME280;34064;44.942;0.008;2023-04-06T10:08:28;99063.00;;;19.58;30.53
47280;BME280;34064;44.942;0.008;2023-04-06T10:10:57;99066.00;;;19.63;30.68
47280;BME280;34064;44.942;0.008;2023-04-06T10:13:25;99072.06;;;19.74;30.84
47280;BME280;34064;44.942;0.008;2023-04-06T10:15:52;99069.38;;;19.74;30.27
47280;BME280;34064;44.942;0.008;2023-04-06T10:18:20;99074.75;;;19.74;29.03
47280;BME280;34064;44.942;0.008;2023-04-06T10:21:01;99072.38;;;19.71;27.94
47280;BME280;34064;44.942;0.008;2023-04-06T10:23:52;99082.00;;;19.57;27.54
47280;BME280;34064;44.942;0.008;2023-04-06T10:26:23;99083.88;;;19.48;28.67
47280;BME280;34064;44.942;0.008;2023-04-06T10:28:50;99077.78;;;19.71;28.20
47280;BME280;34064;44.942;0.008;2023-04-06T10:31:25;99067.69;;;19.98;27.84
47280;BME280;34064;44.942;0.008;2023-04-06T10:33:56;99056.16;;;20.20;27.24
47280;BME280;34064;44.942;0.008;2023-04-06T10:36:26;99052.75;;;20.35;26.70
47280;BME280;34064;44.942;0.008;2023-04-06T10:39:00;99055.03;;;20.46;26.15
47280;BME280;34064;44.942;0.008;2023-04-06T10:41:36;99045.19;;;20.62;26.35
47280;BME280;34064;44.942;0.008;2023-04-06T10:44:03;99043.47;;;20.69;25.71
47280;BME280;34064;44.942;0.008;2023-04-06T10:46:31;99044.78;;;20.73;27.03
47280;BME280;34064;44.942;0.008;2023-04-06T10:48:57;99043.91;;;20.81;27.52
47280;BME280;34064;44.942;0.008;2023-04-06T10:51:28;99048.44;;;20.88;28.17
47280;BME280;34064;44.942;0.008;2023-04-06T10:53:55;99044.94;;;21.03;28.30
47280;BME280;34064;44.942;0.008;2023-04-06T10:56:24;99031.38;;;21.11;27.05
47280;BME280;34064;44.942;0.008;2023-04-06T10:58:53;99034.59;;;21.15;27.36
47280;BME280;34064;44.942;0.008;2023-04-06T11:01:23;99026.59;;;21.22;27.32
47280;BME280;34064;44.942;0.008;2023-04-06T11:03:54;99026.09;;;21.41;27.19
47280;BME280;34064;44.942;0.008;2023-04-06T11:06:29;99020.72;;;21.56;26.59
47280;BME280;34064;44.942;0.008;2023-04-06T11:08:57;99027.13;;;21.55;25.65
47280;BME280;34064;44.942;0.008;2023-04-06T11:11:25;99023.63;;;21.55;25.07
47280;BME280;34064;44.942;0.008;2023-04-06T11:13:57;99020.50;;;21.66;25.90
47280;BME280;34064;44.942;0.008;2023-04-06T11:16:29;99011.75;;;21.79;24.24
47280;BME280;34064;44.942;0.008;2023-04-06T11:18:57;99011.19;;;21.69;24.60
47280;BME280;34064;44.942;0.008;2023-04-06T11:21:51;99014.06;;;21.67;24.78
47280;BME280;34064;44.942;0.008;2023-04-06T11:24:22;99020.13;;;21.69;24.93
47280;BME280;34064;44.942;0.008;2023-04-06T11:26:57;99019.84;;;21.64;24.79
47280;BME280;34064;44.942;0.008;2023-04-06T11:29:28;99014.25;;;21.65;24.44
47280;BME280;34064;44.942;0.008;2023-04-06T11:32:00;98993.09;;;21.84;23.86
47280;BME280;34064;44.942;0.008;2023-04-06T11:34:29;98988.66;;;21.91;22.99
47280;BME280;34064;44.942;0.008;2023-04-06T11:36:59;98986.66;;;22.00;23.23
47280;BME280;34064;44.942;0.008;2023-04-06T11:39:26;98985.81;;;22.15;22.48
47280;BME280;34064;44.942;0.008;2023-04-06T11:41:57;98980.78;;;22.11;23.08
47280;BME280;34064;44.942;0.008;2023-04-06T11:44:43;98987.13;;;22.19;23.19
47280;BME280;34064;44.942;0.008;2023-04-06T11:47:12;98986.84;;;22.13;23.44
47280;BME280;34064;44.942;0.008;2023-04-06T11:49:40;98980.31;;;22.23;23.71
47280;BME280;34064;44.942;0.008;2023-04-06T11:52:27;98987.22;;;22.40;23.39
47280;BME280;34064;44.942;0.008;2023-04-06T11:54:54;98974.78;;;22.46;23.41
47280;BME280;34064;44.942;0.008;2023-04-06T11:57:23;98968.22;;;22.55;23.32
47280;BME280;34064;44.942;0.008;2023-04-06T11:59:54;98962.00;;;22.77;23.74
47280;BME280;34064;44.942;0.008;2023-04-06T12:02:21;98950.88;;;22.93;24.34
47280;BME280;34064;44.942;0.008;2023-04-06T12:04:47;98950.38;;;23.04;24.00
47280;BME280;34064;44.942;0.008;2023-04-06T12:07:13;98943.13;;;23.12;23.95
47280;BME280;34064;44.942;0.008;2023-04-06T12:09:41;98945.47;;;23.15;22.86
47280;BME280;34064;44.942;0.008;2023-04-06T12:12:07;98949.63;;;23.17;22.62
47280;BME280;34064;44.942;0.008;2023-04-06T12:14:34;98941.84;;;23.29;22.75
47280;BME280;34064;44.942;0.008;2023-04-06T12:17:00;98943.63;;;23.44;22.63
47280;BME280;34064;44.942;0.008;2023-04-06T12:19:27;98934.50;;;23.51;22.86
47280;BME280;34064;44.942;0.008;2023-04-06T12:21:55;98937.00;;;23.53;22.73
47280;BME280;34064;44.942;0.008;2023-04-06T12:24:23;98930.31;;;23.49;23.42
47280;BME280;34064;44.942;0.008;2023-04-06T12:26:50;98928.06;;;23.59;23.61
47280;BME280;34064;44.942;0.008;2023-04-06T12:29:16;98927.44;;;23.57;22.44
47280;BME280;34064;44.942;0.008;2023-04-06T12:31:43;98939.06;;;23.51;23.09
47280;BME280;34064;44.942;0.008;2023-04-06T12:34:11;98943.13;;;23.33;22.96
47280;BME280;34064;44.942;0.008;2023-04-06T12:36:38;98936.94;;;23.18;23.42
47280;BME280;34064;44.942;0.008;2023-04-06T12:39:05;98940.94;;;23.22;23.02
47280;BME280;34064;44.942;0.008;2023-04-06T12:41:31;98931.81;;;23.51;22.81
47280;BME280;34064;44.942;0.008;2023-04-06T12:43:59;98913.78;;;23.79;22.64
47280;BME280;34064;44.942;0.008;2023-04-06T12:46:25;98897.47;;;24.14;22.07
47280;BME280;34064;44.942;0.008;2023-04-06T12:48:52;98899.78;;;24.17;21.32
47280;BME280;34064;44.942;0.008;2023-04-06T12:51:23;98905.81;;;24.06;21.61
47280;BME280;34064;44.942;0.008;2023-04-06T12:53:49;98914.44;;;23.81;21.79
47280;BME280;34064;44.942;0.008;2023-04-06T12:56:17;98917.91;;;23.68;22.21
47280;BME280;34064;44.942;0.008;2023-04-06T12:58:45;98924.72;;;23.57;22.32
47280;BME280;34064;44.942;0.008;2023-04-06T13:01:11;98915.88;;;23.42;22.43
47280;BME280;34064;44.942;0.008;2023-04-06T13:03:39;98915.31;;;23.53;22.74
47280;BME280;34064;44.942;0.008;2023-04-06T13:06:06;98905.84;;;23.71;22.51